Time;durP1;ratioP1;P1;durP2;ratioP2;P2;SDS_P1;SDS_P2;PMS_P1;PMS_P2;Temp;Humidity;BMP_temperature;BMP_pressure;BME280_temperature;BME280_humidity;BME280_pressure;Samples;Min_cycle;Max_cycle;Signal;HPM_P1;HPM_P2
2022/12/23 00:00:40;0.00;0.00;0.62;0.00;0.00;0.62;2.13;1.00;;;23.60;27.70;;;;;;2264297;61;20935;-68
2022/12/23 00:03:30;0.00;0.00;0.62;0.00;0.00;0.62;1.87;1.00;;;23.50;27.70;;;;;;2261384;61;20407;-65
2022/12/23 00:06:17;0.00;0.00;0.62;0.00;0.00;0.62;1.60;1.00;;;23.60;27.70;;;;;;2263829;61;20435;-66
2022/12/23 00:09:03;0.00;0.00;0.62;0.00;0.00;0.62;1.50;0.93;;;23.60;27.70;;;;;;2264466;61;20380;-69
2022/12/23 00:15:06;0.00;0.00;0.62;0.00;0.00;0.62;1.73;1.07;;;23.50;27.70;;;;;;2254525;61;20830;-64
2022/12/23 00:17:52;0.00;0.00;0.62;0.00;0.00;0.62;1.53;1.00;;;23.50;27.70;;;;;;2264506;61;20368;-66
2022/12/23 00:20:36;0.00;0.00;0.62;0.00;0.00;0.62;1.60;0.90;;;23.50;27.70;;;;;;2264185;61;20445;-65
2022/12/23 00:23:21;0.00;0.00;0.62;0.00;0.00;0.62;1.63;0.93;;;23.50;27.70;;;;;;2263872;61;20507;-64
2022/12/23 00:26:06;0.00;0.00;0.62;0.00;0.00;0.62;1.90;1.20;;;23.50;27.70;;;;;;2264425;61;20439;-65
2022/12/23 00:28:52;0.00;0.00;0.62;0.00;0.00;0.62;2.13;1.30;;;23.50;27.70;;;;;;2263882;61;20423;-69
2022/12/23 00:31:38;0.00;0.00;0.62;0.00;0.00;0.62;1.80;0.93;;;23.50;27.70;;;;;;2264587;61;20359;-66
2022/12/23 00:34:22;0.00;0.00;0.62;0.00;0.00;0.62;2.17;1.00;;;23.50;27.70;;;;;;2264294;61;20352;-68
2022/12/23 00:37:07;0.00;0.00;0.62;0.00;0.00;0.62;1.80;1.10;;;23.50;27.70;;;;;;2264012;61;20356;-66
2022/12/23 00:43:11;0.00;0.00;0.62;0.00;0.00;0.62;1.60;1.10;;;23.50;27.70;;;;;;2246528;61;20428;-65
2022/12/23 00:45:56;0.00;0.00;0.62;0.00;0.00;0.62;1.40;0.90;;;23.50;27.80;;;;;;2264453;61;20392;-68
2022/12/23 00:51:46;0.00;0.00;0.62;0.00;0.00;0.62;1.37;0.80;;;23.50;27.80;;;;;;2264038;61;20415;-66
2022/12/23 00:54:30;0.00;0.00;0.62;0.00;0.00;0.62;1.40;0.90;;;23.50;27.80;;;;;;2264303;61;20355;-65
2022/12/23 00:57:15;0.00;0.00;0.62;0.00;0.00;0.62;1.40;0.80;;;23.50;27.80;;;;;;2264017;61;20368;-67
2022/12/23 01:00:00;0.00;0.00;0.62;0.00;0.00;0.62;1.30;0.70;;;23.50;27.80;;;;;;2263889;61;20417;-67
2022/12/23 01:05:49;0.00;0.00;0.62;0.00;0.00;0.62;1.50;0.80;;;23.50;27.80;;;;;;2263483;61;20418;-66
2022/12/23 01:08:34;0.00;0.00;0.62;0.00;0.00;0.62;1.50;0.80;;;23.50;27.80;;;;;;2264634;61;20402;-65
2022/12/23 01:11:18;0.00;0.00;0.62;0.00;0.00;0.62;1.40;0.70;;;23.50;27.80;;;;;;2264004;61;20827;-66
2022/12/23 01:14:03;0.00;0.00;0.62;0.00;0.00;0.62;1.50;0.87;;;23.50;27.80;;;;;;2263796;61;20364;-69
2022/12/23 01:16:48;0.00;0.00;0.62;0.00;0.00;0.62;1.30;0.70;;;23.50;27.80;;;;;;2264484;61;20919;-68
2022/12/23 01:19:32;0.00;0.00;0.62;0.00;0.00;0.62;1.40;0.70;;;23.50;27.80;;;;;;2263667;61;20415;-66
2022/12/23 01:22:18;0.00;0.00;0.62;0.00;0.00;0.62;1.40;0.80;;;23.50;28.50;;;;;;2264107;61;20464;-66
2022/12/23 01:25:05;0.00;0.00;0.62;0.00;0.00;0.62;1.83;0.93;;;23.50;28.00;;;;;;2264592;61;20522;-67
2022/12/23 01:27:49;0.00;0.00;0.62;0.00;0.00;0.62;1.97;1.00;;;23.50;28.00;;;;;;2263871;61;20748;-66
2022/12/23 01:30:35;0.00;0.00;0.62;0.00;0.00;0.62;1.77;0.77;;;23.50;27.90;;;;;;2264467;61;20436;-63
2022/12/23 01:33:20;0.00;0.00;0.62;0.00;0.00;0.62;1.40;0.90;;;23.50;27.90;;;;;;2264105;61;20819;-65
2022/12/23 01:36:08;0.00;0.00;0.62;0.00;0.00;0.62;1.50;0.80;;;23.50;27.90;;;;;;2263879;61;20408;-65
2022/12/23 01:38:55;0.00;0.00;0.62;0.00;0.00;0.62;1.60;0.90;;;23.50;27.90;;;;;;2264451;61;20360;-65
2022/12/23 01:44:58;0.00;0.00;0.62;0.00;0.00;0.62;1.60;1.00;;;23.50;27.90;;;;;;2264139;61;20906;-65
2022/12/23 01:47:49;0.00;0.00;0.62;0.00;0.00;0.62;1.43;0.90;;;23.50;27.90;;;;;;2264400;61;20359;-65
2022/12/23 01:50:37;0.00;0.00;0.62;0.00;0.00;0.62;1.87;0.83;;;23.50;27.90;;;;;;2263986;61;20751;-66
2022/12/23 01:53:26;0.00;0.00;0.62;0.00;0.00;0.62;1.40;0.90;;;23.50;27.90;;;;;;2264292;61;20384;-65
2022/12/23 01:56:22;0.00;0.00;0.62;0.00;0.00;0.62;1.83;1.00;;;23.50;27.90;;;;;;2264088;61;20934;-65
2022/12/23 02:05:26;0.00;0.00;0.62;0.00;0.00;0.62;1.80;0.93;;;23.40;27.90;;;;;;2259363;61;20427;-66
2022/12/23 02:11:47;0.00;0.00;0.62;0.00;0.00;0.62;1.40;0.87;;;23.40;28.00;;;;;;2264446;61;20380;-65
2022/12/23 02:18:36;0.00;0.00;0.62;0.00;0.00;0.62;1.40;0.90;;;23.30;28.00;;;;;;2264838;61;20403;-65
2022/12/23 02:21:56;0.00;0.00;0.62;0.00;0.00;0.62;2.00;1.10;;;23.30;28.00;;;;;;2264761;61;20754;-65
2022/12/23 02:25:15;0.00;0.00;0.62;0.00;0.00;0.62;1.50;0.97;;;23.30;28.00;;;;;;2264511;61;20892;-64
2022/12/23 02:28:28;0.00;0.00;0.62;0.00;0.00;0.62;1.50;0.93;;;23.30;28.00;;;;;;2263971;61;20368;-66
2022/12/23 02:31:25;0.00;0.00;0.62;0.00;0.00;0.62;1.80;0.87;;;23.30;28.10;;;;;;2265010;61;20418;-65
2022/12/23 02:34:16;0.00;0.00;0.62;0.00;0.00;0.62;1.33;0.83;;;23.20;28.00;;;;;;2264317;61;20403;-64
2022/12/23 02:37:07;0.00;0.00;0.62;0.00;0.00;0.62;1.50;0.80;;;23.20;28.00;;;;;;2264457;61;20360;-65
2022/12/23 02:39:57;0.00;0.00;0.62;0.00;0.00;0.62;1.50;0.80;;;23.20;28.00;;;;;;2264776;61;20347;-64
2022/12/23 02:42:46;0.00;0.00;0.62;0.00;0.00;0.62;1.50;1.00;;;23.20;28.10;;;;;;2264469;61;20402;-67
2022/12/23 02:45:37;0.00;0.00;0.62;0.00;0.00;0.62;1.60;0.97;;;23.20;28.10;;;;;;2264833;61;20424;-66
2022/12/23 02:48:32;0.00;0.00;0.62;0.00;0.00;0.62;1.60;1.00;;;23.20;28.10;;;;;;2264620;61;20857;-65
2022/12/23 02:51:21;0.00;0.00;0.62;0.00;0.00;0.62;1.33;0.90;;;23.20;28.10;;;;;;2264901;61;20368;-66
2022/12/23 02:54:09;0.00;0.00;0.62;0.00;0.00;0.62;1.30;0.70;;;23.20;28.20;;;;;;2264853;61;20463;-66
2022/12/23 02:56:56;0.00;0.00;0.62;0.00;0.00;0.62;1.70;0.90;;;23.20;28.70;;;;;;2260880;61;20379;-67
2022/12/23 02:59:46;0.00;0.00;0.62;0.00;0.00;0.62;1.43;0.90;;;23.20;28.20;;;;;;2264778;61;20888;-66
2022/12/23 03:02:33;0.00;0.00;0.62;0.00;0.00;0.62;1.30;0.70;;;23.20;28.20;;;;;;2264760;61;20391;-65
2022/12/23 03:05:28;0.00;0.00;0.62;0.00;0.00;0.62;1.30;0.70;;;23.20;28.30;;;;;;2264579;61;20395;-67
2022/12/23 03:08:17;0.00;0.00;0.62;0.00;0.00;0.62;1.50;0.90;;;23.20;28.30;;;;;;2261711;61;20733;-64
2022/12/23 03:11:06;0.00;0.00;0.62;0.00;0.00;0.62;1.53;1.00;;;23.20;28.30;;;;;;2264150;61;20383;-65
2022/12/23 03:14:49;0.00;0.00;0.62;0.00;0.00;0.62;2.17;1.20;;;23.10;28.20;;;;;;2264720;61;20993;-65
2022/12/23 03:17:48;0.00;0.00;0.62;0.00;0.00;0.62;1.50;0.90;;;23.10;28.20;;;;;;2259084;61;20938;-65
2022/12/23 03:20:47;0.00;0.00;0.62;0.00;0.00;0.62;1.40;0.80;;;23.10;28.30;;;;;;2264560;61;20891;-65
2022/12/23 03:23:37;0.00;0.00;0.62;0.00;0.00;0.62;1.63;1.00;;;23.10;28.30;;;;;;2264527;61;20368;-67
2022/12/23 03:26:27;0.00;0.00;0.62;0.00;0.00;0.62;1.40;0.87;;;23.10;28.30;;;;;;2264184;61;20407;-65
2022/12/23 03:29:16;0.00;0.00;0.62;0.00;0.00;0.62;1.70;1.00;;;23.10;28.30;;;;;;2264922;61;20345;-65
2022/12/23 03:32:04;0.00;0.00;0.62;0.00;0.00;0.62;1.80;1.00;;;23.10;28.30;;;;;;2264713;61;20360;-66
2022/12/23 03:34:53;0.00;0.00;0.62;0.00;0.00;0.62;1.47;0.90;;;23.10;28.30;;;;;;2264470;61;20357;-65
2022/12/23 03:37:45;0.00;0.00;0.62;0.00;0.00;0.62;1.40;1.07;;;23.10;28.30;;;;;;2264761;61;20456;-67
2022/12/23 03:40:35;0.00;0.00;0.62;0.00;0.00;0.62;1.80;1.03;;;23.10;28.30;;;;;;2264038;61;20364;-64
2022/12/23 03:43:27;0.00;0.00;0.62;0.00;0.00;0.62;1.60;1.13;;;23.10;28.40;;;;;;2264450;61;20438;-65
2022/12/23 03:46:18;0.00;0.00;0.62;0.00;0.00;0.62;2.33;1.60;;;23.10;28.40;;;;;;2264627;61;20426;-64
2022/12/23 03:49:06;0.00;0.00;0.62;0.00;0.00;0.62;2.00;1.30;;;23.10;28.40;;;;;;2264215;61;20400;-66
2022/12/23 03:51:56;0.00;0.00;0.62;0.00;0.00;0.62;1.73;1.13;;;23.00;28.30;;;;;;2264943;61;20359;-65
2022/12/23 03:54:46;0.00;0.00;0.62;0.00;0.00;0.62;1.63;1.07;;;23.00;28.40;;;;;;2264143;61;20759;-65
2022/12/23 03:57:37;0.00;0.00;0.62;0.00;0.00;0.62;1.70;1.00;;;23.00;28.40;;;;;;2264476;61;20375;-66
2022/12/23 04:00:23;0.00;0.00;0.62;0.00;0.00;0.62;2.00;1.03;;;23.00;28.40;;;;;;2264616;61;20788;-66
2022/12/23 04:03:21;0.00;0.00;0.62;0.00;0.00;0.62;1.50;1.00;;;23.00;28.40;;;;;;2264082;61;20880;-64
2022/12/23 04:06:10;0.00;0.00;0.62;0.00;0.00;0.62;1.53;0.90;;;23.00;28.40;;;;;;2264494;61;20392;-64
2022/12/23 04:08:56;0.00;0.00;0.62;0.00;0.00;0.62;1.70;1.10;;;23.00;28.40;;;;;;2264606;61;20386;-64
2022/12/23 04:11:42;0.00;0.00;0.62;0.00;0.00;0.62;1.60;1.00;;;23.00;28.40;;;;;;2264247;61;20361;-64
2022/12/23 04:14:27;0.00;0.00;0.62;0.00;0.00;0.62;1.50;0.90;;;23.00;28.50;;;;;;2264525;61;20402;-65
2022/12/23 04:17:12;0.00;0.00;0.62;0.00;0.00;0.62;1.50;0.90;;;23.00;28.50;;;;;;2264214;61;20359;-65
2022/12/23 04:19:57;0.00;0.00;0.62;0.00;0.00;0.62;1.40;0.87;;;23.00;28.40;;;;;;2264430;61;20418;-67
2022/12/23 04:22:42;0.00;0.00;0.62;0.00;0.00;0.62;1.50;1.00;;;23.00;28.50;;;;;;2264651;61;20360;-67
2022/12/23 04:25:27;0.00;0.00;0.62;0.00;0.00;0.62;2.00;1.50;;;23.00;28.40;;;;;;2263893;61;20454;-66
2022/12/23 04:28:13;0.00;0.00;0.62;0.00;0.00;0.62;1.90;1.20;;;23.00;28.40;;;;;;2264507;61;20352;-65
2022/12/23 04:30:57;0.00;0.00;0.62;0.00;0.00;0.62;1.60;1.07;;;23.00;28.50;;;;;;2264322;61;20422;-67
2022/12/23 04:33:42;0.00;0.00;0.62;0.00;0.00;0.62;1.70;1.00;;;23.00;28.40;;;;;;2263706;61;20464;-66
2022/12/23 04:36:26;0.00;0.00;0.62;0.00;0.00;0.62;1.60;1.00;;;23.00;28.40;;;;;;2264554;61;20478;-68
2022/12/23 04:39:11;0.00;0.00;0.62;0.00;0.00;0.62;1.63;1.10;;;23.00;28.50;;;;;;2264148;61;20410;-65
2022/12/23 04:41:56;0.00;0.00;0.62;0.00;0.00;0.62;1.70;1.13;;;23.00;28.40;;;;;;2261111;61;20427;-66
2022/12/23 04:44:42;0.00;0.00;0.62;0.00;0.00;0.62;1.60;0.90;;;22.90;28.40;;;;;;2264416;61;20391;-64
2022/12/23 04:47:26;0.00;0.00;0.62;0.00;0.00;0.62;1.93;1.17;;;23.00;28.50;;;;;;2263907;61;20379;-66
2022/12/23 04:50:14;0.00;0.00;0.62;0.00;0.00;0.62;1.60;1.00;;;23.00;28.50;;;;;;2264609;61;20767;-65
2022/12/23 04:52:59;0.00;0.00;0.62;0.00;0.00;0.62;2.20;1.20;;;22.90;28.40;;;;;;2264462;61;20368;-64
2022/12/23 04:55:43;0.00;0.00;0.62;0.00;0.00;0.62;1.80;1.17;;;22.90;28.40;;;;;;2263979;61;20851;-65
2022/12/23 04:58:28;0.00;0.00;0.62;0.00;0.00;0.62;1.73;0.90;;;22.90;28.40;;;;;;2264369;61;20823;-65
2022/12/23 05:01:19;0.00;0.00;0.62;0.00;0.00;0.62;1.97;1.17;;;22.90;28.50;;;;;;2264112;61;20351;-67
2022/12/23 05:04:04;0.00;0.00;0.62;0.00;0.00;0.62;1.67;1.03;;;22.90;28.50;;;;;;2261091;61;20380;-68
2022/12/23 05:06:49;0.00;0.00;0.62;0.00;0.00;0.62;1.50;1.00;;;22.90;28.50;;;;;;2264232;61;20384;-68
2022/12/23 05:09:33;0.00;0.00;0.62;0.00;0.00;0.62;1.33;0.80;;;22.90;28.50;;;;;;2263713;61;20368;-66
2022/12/23 05:12:18;0.00;0.00;0.62;0.00;0.00;0.62;1.50;0.90;;;22.90;28.50;;;;;;2264439;61;20860;-67
2022/12/23 05:15:03;0.00;0.00;0.62;0.00;0.00;0.62;1.53;0.97;;;22.90;28.50;;;;;;2264299;61;20399;-65
2022/12/23 05:17:49;0.00;0.00;0.62;0.00;0.00;0.62;2.20;1.10;;;22.90;28.50;;;;;;2263909;61;20413;-67
2022/12/23 05:20:33;0.00;0.00;0.62;0.00;0.00;0.62;1.40;0.90;;;22.90;28.40;;;;;;2261262;61;20379;-65
2022/12/23 05:23:18;0.00;0.00;0.62;0.00;0.00;0.62;1.67;1.17;;;22.90;28.40;;;;;;2264014;61;20376;-65
2022/12/23 05:26:03;0.00;0.00;0.62;0.00;0.00;0.62;1.70;1.03;;;22.90;28.50;;;;;;2264179;61;20388;-68
2022/12/23 05:28:48;0.00;0.00;0.62;0.00;0.00;0.62;1.60;1.10;;;22.90;28.40;;;;;;2261232;61;20944;-65
2022/12/23 05:31:40;0.00;0.00;0.62;0.00;0.00;0.62;1.70;1.30;;;22.90;28.40;;;;;;2263769;61;20359;-65
2022/12/23 05:34:28;0.00;0.00;0.62;0.00;0.00;0.62;1.87;1.43;;;22.90;28.40;;;;;;2264323;61;20395;-66
2022/12/23 05:37:12;0.00;0.00;0.62;0.00;0.00;0.62;1.50;0.90;;;22.90;28.40;;;;;;2264421;61;20383;-64
2022/12/23 05:39:57;0.00;0.00;0.62;0.00;0.00;0.62;1.57;1.00;;;22.90;28.40;;;;;;2263693;61;20400;-64
2022/12/23 05:42:41;0.00;0.00;0.62;0.00;0.00;0.62;2.00;1.30;;;22.90;28.40;;;;;;2264337;61;20895;-64
2022/12/23 05:45:26;0.00;0.00;0.62;0.00;0.00;0.62;2.27;1.33;;;22.90;28.90;;;;;;2264177;61;20396;-66
2022/12/23 05:48:11;0.00;0.00;0.62;0.00;0.00;0.62;1.63;1.10;;;22.90;28.40;;;;;;2264703;61;20356;-66
2022/12/23 05:50:57;0.00;0.00;0.62;0.00;0.00;0.62;1.70;1.10;;;22.90;28.40;;;;;;2265082;61;20747;-63
2022/12/23 05:53:41;0.00;0.00;0.62;0.00;0.00;0.62;2.10;1.40;;;22.90;28.40;;;;;;2264518;61;20455;-66
2022/12/23 05:56:26;0.00;0.00;0.62;0.00;0.00;0.62;2.43;1.50;;;22.90;28.40;;;;;;2264806;61;20379;-64
2022/12/23 05:59:10;0.00;0.00;0.62;0.00;0.00;0.62;1.60;1.27;;;22.90;28.40;;;;;;2265041;61;20360;-66
2022/12/23 06:01:55;0.00;0.00;0.62;0.00;0.00;0.62;1.90;1.60;;;22.90;28.40;;;;;;2264363;61;20498;-66
2022/12/23 06:04:40;0.00;0.00;0.62;0.00;0.00;0.62;2.10;1.67;;;22.90;28.40;;;;;;2264929;61;20766;-64
2022/12/23 06:07:26;0.00;0.00;0.62;0.00;0.00;0.62;2.20;1.60;;;22.90;28.40;;;;;;2264847;61;20360;-65
2022/12/23 06:10:11;0.00;0.00;0.62;0.00;0.00;0.62;2.13;1.50;;;22.90;28.40;;;;;;2264724;61;20395;-66
2022/12/23 06:12:55;0.00;0.00;0.62;0.00;0.00;0.62;1.77;1.33;;;22.90;28.40;;;;;;2264845;61;20410;-66
2022/12/23 06:15:40;0.00;0.00;0.62;0.00;0.00;0.62;2.30;1.43;;;22.90;28.40;;;;;;2264459;61;20376;-65
2022/12/23 06:18:25;0.00;0.00;0.62;0.00;0.00;0.62;1.90;1.30;;;22.90;28.40;;;;;;2264831;61;20402;-66
2022/12/23 06:21:09;0.00;0.00;0.62;0.00;0.00;0.62;1.87;1.47;;;22.90;28.50;;;;;;2265035;61;20355;-66
2022/12/23 06:23:55;0.00;0.00;0.62;0.00;0.00;0.62;2.90;1.63;;;22.90;28.40;;;;;;2264138;61;20401;-64
2022/12/23 06:26:41;0.00;0.00;0.62;0.00;0.00;0.62;1.70;1.17;;;22.90;28.40;;;;;;2264735;61;20392;-65
2022/12/23 06:29:25;0.00;0.00;0.62;0.00;0.00;0.62;2.63;1.80;;;22.90;28.40;;;;;;2264744;61;20376;-65
2022/12/23 06:32:10;0.00;0.00;0.62;0.00;0.00;0.62;2.03;1.60;;;22.90;28.40;;;;;;2264381;61;20344;-65
2022/12/23 06:34:54;0.00;0.00;0.62;0.00;0.00;0.62;2.00;1.40;;;22.90;28.40;;;;;;2264798;61;20436;-64
2022/12/23 06:37:39;0.00;0.00;0.62;0.00;0.00;0.62;1.80;1.23;;;22.90;28.50;;;;;;2264561;61;20367;-64
2022/12/23 06:40:27;0.00;0.00;0.62;0.00;0.00;0.62;2.00;1.40;;;22.90;28.40;;;;;;2264380;61;20356;-66
2022/12/23 06:43:12;0.00;0.00;0.62;0.00;0.00;0.62;2.13;1.57;;;22.90;28.40;;;;;;2264949;61;20406;-65
2022/12/23 06:45:57;0.00;0.00;0.62;0.00;0.00;0.62;2.00;1.40;;;22.90;28.40;;;;;;2264171;61;20412;-64
2022/12/23 06:48:42;0.00;0.00;0.62;0.00;0.00;0.62;2.20;1.60;;;22.90;28.40;;;;;;2265144;61;20356;-67
2022/12/23 06:51:26;0.00;0.00;0.62;0.00;0.00;0.62;2.00;1.40;;;22.90;28.40;;;;;;2264812;61;20364;-64
2022/12/23 06:54:11;0.00;0.00;0.62;0.00;0.00;0.62;2.07;1.40;;;22.80;28.80;;;;;;2264001;61;20364;-65
2022/12/23 06:56:58;0.00;0.00;0.62;0.00;0.00;0.62;2.10;1.70;;;22.90;28.50;;;;;;2264543;61;20992;-65
2022/12/23 06:59:42;0.00;0.00;0.62;0.00;0.00;0.62;1.67;1.20;;;22.90;28.40;;;;;;2264184;61;20388;-68
2022/12/23 07:02:27;0.00;0.00;0.62;0.00;0.00;0.62;2.40;1.73;;;22.90;28.40;;;;;;2264323;61;20384;-68
2022/12/23 07:05:11;0.00;0.00;0.62;0.00;0.00;0.62;2.20;1.43;;;22.80;28.30;;;;;;2265038;61;20394;-65
2022/12/23 07:07:57;0.00;0.00;0.62;0.00;0.00;0.62;1.70;1.10;;;22.80;28.40;;;;;;2263538;61;20368;-67
2022/12/23 07:10:43;0.00;0.00;0.62;0.00;0.00;0.62;2.53;1.53;;;22.80;28.40;;;;;;2261424;61;20777;-66
2022/12/23 07:13:30;0.00;0.00;0.62;0.00;0.00;0.62;2.53;1.30;;;22.80;28.50;;;;;;2264362;61;20364;-68
2022/12/23 07:16:16;0.00;0.00;0.62;0.00;0.00;0.62;2.27;1.40;;;22.80;28.50;;;;;;2264039;61;20438;-65
2022/12/23 07:19:00;0.00;0.00;0.62;0.00;0.00;0.62;4.13;1.33;;;22.80;28.50;;;;;;2264595;61;20404;-63
2022/12/23 07:21:45;0.00;0.00;0.62;0.00;0.00;0.62;2.13;1.40;;;22.80;28.50;;;;;;2264128;61;20760;-65
2022/12/23 07:24:30;0.00;0.00;0.62;0.00;0.00;0.62;2.03;1.40;;;22.80;28.40;;;;;;2264217;61;20344;-65
2022/12/23 07:27:16;0.00;0.00;0.62;0.00;0.00;0.62;1.60;1.20;;;22.80;28.50;;;;;;2264743;61;20452;-64
2022/12/23 07:30:02;0.00;0.00;0.62;0.00;0.00;0.62;2.00;1.50;;;22.80;28.50;;;;;;2263889;61;20360;-67
2022/12/23 07:32:47;0.00;0.00;0.62;0.00;0.00;0.62;1.90;1.40;;;22.80;28.50;;;;;;2264556;61;20399;-65
2022/12/23 07:35:32;0.00;0.00;0.62;0.00;0.00;0.62;1.87;1.30;;;22.80;28.50;;;;;;2264353;61;20380;-67
2022/12/23 07:38:17;0.00;0.00;0.62;0.00;0.00;0.62;1.80;1.30;;;22.80;28.50;;;;;;2263880;61;20763;-66
2022/12/23 07:41:02;0.00;0.00;0.62;0.00;0.00;0.62;1.80;1.10;;;22.80;28.50;;;;;;2264444;61;20344;-65
2022/12/23 07:43:47;0.00;0.00;0.62;0.00;0.00;0.62;1.80;1.23;;;22.80;28.60;;;;;;2263723;61;20367;-64
2022/12/23 07:46:32;0.00;0.00;0.62;0.00;0.00;0.62;1.90;1.30;;;22.80;28.50;;;;;;2264062;61;20395;-65
2022/12/23 07:49:17;0.00;0.00;0.62;0.00;0.00;0.62;2.00;1.37;;;22.80;28.50;;;;;;2264368;61;20387;-64
2022/12/23 07:52:03;0.00;0.00;0.62;0.00;0.00;0.62;2.10;1.77;;;22.80;28.50;;;;;;2263895;61;20407;-68
2022/12/23 07:54:48;0.00;0.00;0.62;0.00;0.00;0.62;2.47;2.00;;;22.80;28.50;;;;;;2264516;61;20766;-71
2022/12/23 07:57:36;0.00;0.00;0.62;0.00;0.00;0.62;2.67;1.93;;;22.80;28.40;;;;;;2264269;61;20440;-69
2022/12/23 08:00:25;0.00;0.00;0.62;0.00;0.00;0.62;2.67;2.00;;;22.80;28.40;;;;;;2263680;61;20364;-66
2022/12/23 08:03:11;0.00;0.00;0.62;0.00;0.00;0.62;2.53;1.87;;;22.80;28.50;;;;;;2264386;61;20356;-71
2022/12/23 08:06:01;0.00;0.00;0.62;0.00;0.00;0.62;3.20;2.40;;;22.80;28.40;;;;;;2264047;61;20447;-67
2022/12/23 08:08:46;0.00;0.00;0.62;0.00;0.00;0.62;4.73;1.93;;;22.80;28.40;;;;;;2264164;61;20456;-64
2022/12/23 08:11:30;0.00;0.00;0.62;0.00;0.00;0.62;2.83;2.40;;;22.80;28.40;;;;;;2264447;61;20414;-71
2022/12/23 08:14:15;0.00;0.00;0.62;0.00;0.00;0.62;2.73;2.00;;;22.80;28.40;;;;;;2263725;61;20360;-65
2022/12/23 08:17:00;0.00;0.00;0.62;0.00;0.00;0.62;2.87;2.20;;;22.80;28.30;;;;;;2264701;61;20942;-69
2022/12/23 08:19:46;0.00;0.00;0.62;0.00;0.00;0.62;3.33;2.27;;;22.80;28.90;;;;;;2264465;61;20344;-67
2022/12/23 08:22:31;0.00;0.00;0.62;0.00;0.00;0.62;2.63;1.87;;;22.80;28.30;;;;;;2263527;61;20376;-66
2022/12/23 08:25:16;0.00;0.00;0.62;0.00;0.00;0.62;2.77;2.10;;;22.80;28.30;;;;;;2264217;61;20443;-68
2022/12/23 08:28:00;0.00;0.00;0.62;0.00;0.00;0.62;3.10;2.13;;;22.80;28.40;;;;;;2264412;61;20349;-66
2022/12/23 08:30:45;0.00;0.00;0.62;0.00;0.00;0.62;2.40;1.83;;;22.80;28.40;;;;;;2263981;61;20765;-67
2022/12/23 08:33:30;0.00;0.00;0.62;0.00;0.00;0.62;2.73;1.60;;;22.80;28.40;;;;;;2264231;61;20363;-66
2022/12/23 08:36:18;0.00;0.00;0.62;0.00;0.00;0.62;2.70;1.83;;;22.80;28.50;;;;;;2264324;61;20951;-62
2022/12/23 08:39:07;0.00;0.00;0.62;0.00;0.00;0.62;2.17;1.80;;;22.80;28.60;;;;;;2302447;57;20380;-65
2022/12/23 08:41:52;0.00;0.00;0.62;0.00;0.00;0.62;2.70;1.53;;;22.80;28.50;;;;;;2264374;61;20351;-67
2022/12/23 08:44:37;0.00;0.00;0.62;0.00;0.00;0.62;3.50;1.80;;;22.80;28.50;;;;;;2263662;61;20371;-65
2022/12/23 08:47:22;0.00;0.00;0.62;0.00;0.00;0.62;2.10;1.50;;;22.80;28.50;;;;;;2264266;61;20360;-67
2022/12/23 08:50:07;0.00;0.00;0.62;0.00;0.00;0.62;2.10;1.40;;;22.80;28.50;;;;;;2264204;61;20359;-69
2022/12/23 08:52:53;0.00;0.00;0.62;0.00;0.00;0.62;2.37;1.37;;;22.80;28.50;;;;;;2263550;61;20751;-67
2022/12/23 08:55:39;0.00;0.00;0.62;0.00;0.00;0.62;1.90;1.30;;;22.80;28.50;;;;;;2264575;61;20949;-65
2022/12/23 08:58:24;0.00;0.00;0.62;0.00;0.00;0.62;1.70;1.30;;;22.90;28.60;;;;;;2263835;61;20802;-68
2022/12/23 09:01:12;0.00;0.00;0.62;0.00;0.00;0.62;2.00;1.37;;;22.90;28.60;;;;;;2264334;61;20368;-64
2022/12/23 09:03:57;0.00;0.00;0.62;0.00;0.00;0.62;2.10;1.37;;;22.90;29.20;;;;;;2264308;61;20786;-66
2022/12/23 09:06:43;0.00;0.00;0.62;0.00;0.00;0.62;1.87;1.10;;;22.90;28.60;;;;;;2263437;61;20975;-65
2022/12/23 09:09:29;0.00;0.00;0.62;0.00;0.00;0.62;1.83;1.20;;;22.90;28.60;;;;;;2264446;61;20378;-65
2022/12/23 09:12:13;0.00;0.00;0.62;0.00;0.00;0.62;2.10;1.60;;;22.90;28.60;;;;;;2264079;61;20399;-63
2022/12/23 09:14:58;0.00;0.00;0.62;0.00;0.00;0.62;1.70;1.40;;;22.90;28.70;;;;;;2263763;61;20387;-69
2022/12/23 09:17:43;0.00;0.00;0.62;0.00;0.00;0.62;1.73;1.57;;;22.90;28.60;;;;;;2264493;61;20363;-70
2022/12/23 09:20:28;0.00;0.00;0.62;0.00;0.00;0.62;1.70;1.10;;;22.90;28.60;;;;;;2262983;61;20407;-64
2022/12/23 09:23:13;0.00;0.00;0.62;0.00;0.00;0.62;1.70;1.30;;;22.90;28.60;;;;;;2264099;61;20356;-67
2022/12/23 09:25:59;0.00;0.00;0.62;0.00;0.00;0.62;2.00;1.40;;;22.90;28.60;;;;;;2264301;61;20396;-63
2022/12/23 09:28:49;0.00;0.00;0.62;0.00;0.00;0.62;2.10;1.33;;;22.90;28.60;;;;;;2263479;61;20364;-68
2022/12/23 09:31:34;0.00;0.00;0.62;0.00;0.00;0.62;1.80;1.00;;;23.00;28.70;;;;;;2261292;61;20359;-67
2022/12/23 09:34:18;0.00;0.00;0.62;0.00;0.00;0.62;1.67;1.20;;;23.00;28.70;;;;;;2264035;61;20368;-69
2022/12/23 09:37:03;0.00;0.00;0.62;0.00;0.00;0.62;2.00;1.30;;;23.00;28.70;;;;;;2263765;61;20460;-67
2022/12/23 09:39:47;0.00;0.00;0.62;0.00;0.00;0.62;1.60;1.10;;;22.90;28.60;;;;;;2264260;61;20410;-65
2022/12/23 09:42:50;0.00;0.00;0.62;0.00;0.00;0.62;1.50;1.07;;;23.00;28.70;;;;;;2263472;61;20406;-69
2022/12/23 09:45:57;0.00;0.00;0.62;0.00;0.00;0.62;1.50;1.07;;;23.00;28.60;;;;;;2264215;61;21261;-66
2022/12/23 09:48:50;0.00;0.00;0.62;0.00;0.00;0.62;1.60;1.00;;;23.00;28.60;;;;;;2264284;61;20360;-65
2022/12/23 09:51:34;0.00;0.00;0.62;0.00;0.00;0.62;1.60;1.13;;;23.00;28.50;;;;;;2263609;61;20392;-67
2022/12/23 09:54:23;0.00;0.00;0.62;0.00;0.00;0.62;2.03;1.20;;;23.00;28.50;;;;;;2263861;61;20876;-66
2022/12/23 09:57:19;0.00;0.00;0.62;0.00;0.00;0.62;1.40;0.90;;;23.00;28.40;;;;;;2263689;61;20422;-70
2022/12/23 10:00:12;0.00;0.00;0.62;0.00;0.00;0.62;1.60;0.97;;;23.00;28.40;;;;;;2263898;61;20892;-66
2022/12/23 10:03:19;0.00;0.00;0.62;0.00;0.00;0.62;1.60;1.00;;;23.00;28.40;;;;;;2264178;61;20582;-69
2022/12/23 10:06:14;0.00;0.00;0.62;0.00;0.00;0.62;1.73;1.20;;;23.00;28.40;;;;;;2263265;61;20891;-65
2022/12/23 10:09:03;0.00;0.00;0.62;0.00;0.00;0.62;1.63;0.90;;;23.00;28.40;;;;;;2264348;61;20364;-69
2022/12/23 10:11:50;0.00;0.00;0.62;0.00;0.00;0.62;1.70;1.03;;;23.00;28.40;;;;;;2263901;61;20410;-70
2022/12/23 10:14:36;0.00;0.00;0.62;0.00;0.00;0.62;2.07;1.13;;;23.00;28.30;;;;;;2263968;61;20369;-68
2022/12/23 10:17:29;0.00;0.00;0.62;0.00;0.00;0.62;1.40;0.90;;;23.00;28.30;;;;;;2264124;61;20480;-65
2022/12/23 10:20:23;0.00;0.00;0.62;0.00;0.00;0.62;1.40;0.97;;;23.00;28.30;;;;;;2263495;61;20419;-69
2022/12/23 10:23:16;0.00;0.00;0.62;0.00;0.00;0.62;1.70;1.00;;;23.10;28.40;;;;;;2264136;61;20399;-69
2022/12/23 10:26:05;0.00;0.00;0.62;0.00;0.00;0.62;1.50;1.00;;;23.10;28.30;;;;;;2264094;61;21009;-64
2022/12/23 10:29:00;0.00;0.00;0.62;0.00;0.00;0.62;1.43;1.00;;;23.10;28.30;;;;;;2263685;61;20456;-69
2022/12/23 10:31:59;0.00;0.00;0.62;0.00;0.00;0.62;1.40;0.90;;;23.10;28.30;;;;;;2264676;61;20396;-64
2022/12/23 10:34:53;0.00;0.00;0.62;0.00;0.00;0.62;1.40;0.80;;;23.10;28.30;;;;;;2264260;61;20930;-69
2022/12/23 10:37:47;0.00;0.00;0.62;0.00;0.00;0.62;1.67;1.07;;;23.10;28.30;;;;;;2264983;61;20815;-69
2022/12/23 10:40:42;0.00;0.00;0.62;0.00;0.00;0.62;1.50;0.90;;;23.00;28.20;;;;;;2264929;61;20352;-68
2022/12/23 10:43:40;0.00;0.00;0.62;0.00;0.00;0.62;1.50;0.90;;;23.10;28.20;;;;;;2264115;61;20441;-68
2022/12/23 10:46:34;0.00;0.00;0.62;0.00;0.00;0.62;1.70;1.10;;;23.10;28.20;;;;;;2264653;61;21386;-68
2022/12/23 10:49:32;0.00;0.00;0.62;0.00;0.00;0.62;1.30;0.80;;;23.10;28.20;;;;;;2264431;61;20495;-67
2022/12/23 10:52:22;0.00;0.00;0.62;0.00;0.00;0.62;2.37;1.33;;;23.10;28.20;;;;;;2264706;61;20396;-67
2022/12/23 10:55:20;0.00;0.00;0.62;0.00;0.00;0.62;1.80;1.03;;;23.10;28.20;;;;;;2264735;61;20432;-63
2022/12/23 10:58:11;0.00;0.00;0.62;0.00;0.00;0.62;1.30;0.80;;;23.10;28.20;;;;;;2264082;61;20364;-68
2022/12/23 11:01:01;0.00;0.00;0.62;0.00;0.00;0.62;1.50;0.90;;;23.10;28.20;;;;;;2264613;61;20821;-63
2022/12/23 11:04:02;0.00;0.00;0.62;0.00;0.00;0.62;1.50;0.90;;;23.10;28.20;;;;;;2264077;61;20371;-67
2022/12/23 11:06:51;0.00;0.00;0.62;0.00;0.00;0.62;1.60;1.20;;;23.10;28.20;;;;;;2264473;61;20392;-67
2022/12/23 11:09:40;0.00;0.00;0.62;0.00;0.00;0.62;1.60;1.00;;;23.10;28.10;;;;;;2264736;61;20406;-67
2022/12/23 11:12:38;0.00;0.00;0.62;0.00;0.00;0.62;1.90;1.00;;;23.10;28.10;;;;;;2263933;61;20384;-67
2022/12/23 11:15:31;0.00;0.00;0.62;0.00;0.00;0.62;1.97;1.00;;;23.10;28.10;;;;;;2264618;61;20416;-68
2022/12/23 11:18:18;0.00;0.00;0.62;0.00;0.00;0.62;1.80;1.13;;;23.10;28.10;;;;;;2264520;61;20431;-68
2022/12/23 11:21:05;0.00;0.00;0.62;0.00;0.00;0.62;1.70;1.10;;;23.10;28.10;;;;;;2264199;61;20360;-66
2022/12/23 11:24:14;0.00;0.00;0.62;0.00;0.00;0.62;2.50;1.40;;;23.10;28.20;;;;;;2264526;61;20368;-66
2022/12/23 11:27:03;0.00;0.00;0.62;0.00;0.00;0.62;2.07;1.37;;;23.10;28.20;;;;;;2263731;61;20938;-64
2022/12/23 11:29:52;0.00;0.00;0.62;0.00;0.00;0.62;2.20;1.40;;;23.10;28.20;;;;;;2264879;61;20410;-68
2022/12/23 11:32:37;0.00;0.00;0.62;0.00;0.00;0.62;1.67;1.37;;;23.10;28.20;;;;;;2264645;61;20898;-66